Time;durP1;ratioP1;P1;durP2;ratioP2;P2;SDS_P1;SDS_P2;PMS_P1;PMS_P2;Temp;Humidity;BMP_temperature;BMP_pressure;BME280_temperature;BME280_humidity;BME280_pressure;Samples;Min_cycle;Max_cycle;Signal;HPM_P1;HPM_P2
2021/04/17 00:05:25;;;;;;;11.65;6.10;;;-0.70;99.90;;;;;;21145791;27;20339;-43
2021/04/17 00:15:45;;;;;;;12.13;6.38;;;-0.80;99.90;;;;;;21145958;27;20343;-43
2021/04/17 00:26:05;;;;;;;10.02;5.93;;;-1.00;99.90;;;;;;21145631;27;20350;-46
2021/04/17 00:36:25;;;;;;;10.13;4.93;;;-1.20;99.90;;;;;;21402427;27;20298;-44
2021/04/17 00:46:45;;;;;;;12.57;7.07;;;-1.30;99.90;;;;;;20636406;28;20350;-43
2021/04/17 00:57:04;;;;;;;10.02;5.85;;;-1.40;99.90;;;;;;21146119;27;20353;-45
2021/04/17 01:07:27;;;;;;;11.50;6.15;;;-1.40;99.90;;;;;;21145982;27;20855;-44
2021/04/17 01:17:52;;;;;;;10.85;6.30;;;-1.30;99.90;;;;;;21145855;27;20691;-43
2021/04/17 01:28:17;;;;;;;10.75;6.00;;;-1.50;99.90;;;;;;20978152;28;20899;-43
2021/04/17 01:38:45;;;;;;;11.18;6.13;;;-1.60;99.90;;;;;;21402401;27;20288;-44
2021/04/17 01:49:09;;;;;;;13.30;7.53;;;-1.20;99.90;;;;;;21145798;27;20872;-43
2021/04/17 01:59:35;;;;;;;13.43;8.23;;;-1.20;99.90;;;;;;21145440;27;20355;-45
2021/04/17 02:09:55;;;;;;;12.35;6.85;;;-1.30;99.90;;;;;;21230928;27;20348;-43
2021/04/17 02:20:25;;;;;;;12.67;8.47;;;-1.50;99.90;;;;;;20972263;28;20392;-45
2021/04/17 02:30:53;;;;;;;13.85;7.22;;;-1.30;99.90;;;;;;21061342;28;20366;-43
2021/04/17 02:41:14;;;;;;;12.25;6.35;;;-1.10;99.90;;;;;;21061703;28;20359;-43
2021/04/17 02:51:35;;;;;;;13.65;7.78;;;-1.20;99.90;;;;;;21402505;27;20353;-43
2021/04/17 03:01:54;;;;;;;14.43;7.72;;;-1.30;99.90;;;;;;21145943;27;20848;-44
2021/04/17 03:12:15;;;;;;;15.77;11.30;;;-1.50;99.90;;;;;;21224769;27;20760;-45
2021/04/17 03:22:36;;;;;;;16.45;8.35;;;-1.50;99.90;;;;;;20978074;28;20355;-43
2021/04/17 03:33:00;;;;;;;13.23;9.70;;;-1.30;99.90;;;;;;21310538;27;20758;-44
2021/04/17 03:43:20;;;;;;;12.35;7.28;;;-1.00;99.90;;;;;;21145591;27;20779;-43
2021/04/17 03:53:41;;;;;;;12.68;7.35;;;-1.00;99.90;;;;;;21145644;27;20712;-43
2021/04/17 04:04:02;;;;;;;13.48;6.82;;;-1.10;99.90;;;;;;21189271;27;20335;-45
2021/04/17 04:14:21;;;;;;;12.25;6.95;;;-1.20;99.90;;;;;;21288879;27;887993;-45
2021/04/17 04:24:42;;;;;;;9.43;5.22;;;-1.10;99.90;;;;;;21354051;27;20300;-43
2021/04/17 04:35:05;;;;;;;13.02;7.47;;;-1.20;99.90;;;;;;21230659;27;20290;-43
2021/04/17 04:45:28;;;;;;;13.98;7.63;;;-1.10;99.90;;;;;;21230769;27;20110;-44
2021/04/17 04:55:48;;;;;;;15.93;8.23;;;-1.00;99.90;;;;;;21230897;27;20806;-44
2021/04/17 05:06:06;;;;;;;12.77;7.22;;;-1.00;99.90;;;;;;21145947;27;20385;-44
2021/04/17 05:16:28;;;;;;;14.63;9.90;;;-1.10;99.90;;;;;;20972460;28;20391;-43
2021/04/17 05:26:50;;;;;;;13.48;6.78;;;-1.00;99.90;;;;;;21061560;27;20344;-43
2021/04/17 05:37:10;;;;;;;12.40;7.47;;;-1.10;99.90;;;;;;20978051;28;20360;-43
2021/04/17 05:47:30;;;;;;;12.50;6.53;;;-0.90;99.90;;;;;;21145957;27;20358;-45
2021/04/17 05:57:52;;;;;;;12.30;8.27;;;-0.60;99.90;;;;;;21139850;27;20762;-44
2021/04/17 06:08:13;;;;;;;14.98;8.38;;;-0.20;99.90;;;;;;21140375;27;20506;-46
2021/04/17 06:18:32;;;;;;;12.43;6.82;;;0.50;99.90;;;;;;21354419;27;20675;-43
2021/04/17 06:28:52;;;;;;;11.85;5.22;;;0.70;99.90;;;;;;21403147;27;19947;-43
2021/04/17 06:39:14;;;;;;;7.90;4.35;;;1.80;99.90;;;;;;21230643;27;20104;-44
2021/04/17 06:49:32;;;;;;;6.38;3.45;;;4.30;98.40;;;;;;21146278;27;20357;-42
2021/04/17 06:59:52;;;;;;;6.53;4.13;;;5.30;91.10;;;;;;20978372;28;20369;-44
2021/04/17 07:10:14;;;;;;;7.27;4.67;;;5.40;88.80;;;;;;20973032;28;20392;-45
2021/04/17 07:20:35;;;;;;;6.88;4.43;;;5.40;91.30;;;;;;21230888;27;20588;-44
2021/04/17 07:30:55;;;;;;;6.93;4.27;;;5.60;89.40;;;;;;20978288;28;20363;-43
2021/04/17 07:41:15;;;;;;;7.22;3.33;;;5.40;85.20;;;;;;20978013;28;20861;-43
2021/04/17 07:51:54;;;;;;;7.07;4.03;;;5.20;90.00;;;;;;21146329;27;20347;-43
2021/04/17 08:02:16;;;;;;;6.22;4.22;;;5.70;85.10;;;;;;21403004;27;20284;-44
2021/04/17 08:12:20;;;;;;;5.60;3.20;;;5.50;85.00;;;;;;21315717;27;20031;-47
2021/04/17 08:22:27;;;;;;;5.10;3.53;;;5.50;82.00;;;;;;21314926;27;20035;-43
2021/04/17 08:32:37;;;;;;;9.13;4.80;;;5.70;79.70;;;;;;21274830;27;20473;-45
2021/04/17 08:42:50;;;;;;;5.77;3.63;;;5.60;82.90;;;;;;21229138;28;20035;-43
2021/04/17 08:52:59;;;;;;;8.15;4.15;;;6.20;78.10;;;;;;21226945;28;20554;-46
2021/04/17 09:03:01;;;;;;;6.82;4.10;;;7.20;89.50;;;;;;21226514;28;20023;-50
2021/04/17 09:13:16;;;;;;;8.13;4.20;;;7.60;90.50;;;;;;21171437;28;20057;-43
2021/04/17 09:23:36;;;;;;;5.55;4.20;;;8.40;87.50;;;;;;21167764;28;20043;-44
2021/04/17 09:33:38;;;;;;;8.37;5.43;;;9.00;87.20;;;;;;21203337;27;20035;-47
2021/04/17 09:43:40;;;;;;;6.95;4.47;;;10.10;89.20;;;;;;21252589;27;20456;-44
2021/04/17 09:53:42;;;;;;;6.07;4.30;;;11.30;84.60;;;;;;21250082;27;20047;-47
2021/04/17 10:03:59;;;;;;;10.13;5.97;;;12.00;72.50;;;;;;21231418;27;20079;-46
2021/04/17 10:14:02;;;;;;;7.50;5.40;;;11.90;76.50;;;;;;21248640;27;20039;-44
2021/04/17 10:24:37;;;;;;;11.60;6.38;;;11.10;72.30;;;;;;21247200;27;20031;-44
2021/04/17 10:34:40;;;;;;;8.68;6.60;;;10.70;79.30;;;;;;21218205;27;20074;-44
2021/04/17 10:44:51;;;;;;;10.05;6.78;;;11.10;85.10;;;;;;21247649;27;20131;-46
2021/04/17 10:54:54;;;;;;;7.68;5.55;;;10.90;79.70;;;;;;21226971;27;20051;-44
2021/04/17 11:04:57;;;;;;;11.05;6.60;;;10.80;75.50;;;;;;21244849;27;20088;-43
2021/04/17 11:15:21;;;;;;;9.48;7.00;;;10.90;77.90;;;;;;21243668;27;20490;-45
2021/04/17 11:25:23;;;;;;;9.32;7.13;;;10.30;77.70;;;;;;21243102;27;20472;-43
2021/04/17 11:35:24;;;;;;;9.95;7.82;;;8.90;83.00;;;;;;21190850;27;20035;-44
2021/04/17 11:45:26;;;;;;;12.35;7.38;;;8.10;84.60;;;;;;21157039;28;20027;-43
2021/04/17 11:55:28;;;;;;;11.90;7.93;;;8.10;86.50;;;;;;21148110;28;20432;-43
2021/04/17 12:05:30;;;;;;;11.93;8.57;;;7.70;83.70;;;;;;21156493;28;20550;-45
2021/04/17 12:15:32;;;;;;;15.43;8.20;;;8.00;86.50;;;;;;21200607;28;20171;-44
2021/04/17 12:25:36;;;;;;;11.73;8.43;;;9.10;83.80;;;;;;21196926;28;20040;-43
2021/04/17 12:35:40;;;;;;;10.95;8.13;;;8.90;86.30;;;;;;21180078;28;20035;-45
2021/04/17 12:45:42;;;;;;;11.77;8.63;;;9.50;86.00;;;;;;21165766;28;20066;-45
2021/04/17 12:55:44;;;;;;;13.27;9.15;;;9.80;83.20;;;;;;21170187;28;20451;-44
2021/04/17 13:05:46;;;;;;;12.70;9.10;;;10.10;85.30;;;;;;21151419;28;20031;-44
2021/04/17 13:15:48;;;;;;;12.60;9.45;;;10.30;85.20;;;;;;21151996;27;20412;-44
2021/04/17 13:25:49;;;;;;;14.25;9.85;;;10.30;83.70;;;;;;21253820;27;20107;-47
2021/04/17 13:35:51;;;;;;;14.07;9.70;;;9.80;84.80;;;;;;21234465;27;20035;-47
2021/04/17 13:45:55;;;;;;;12.27;9.73;;;10.10;88.80;;;;;;21251819;27;20553;-47
2021/04/17 13:55:58;;;;;;;12.88;8.88;;;10.30;84.10;;;;;;21250329;27;20560;-44
2021/04/17 14:05:59;;;;;;;11.52;8.88;;;10.60;82.50;;;;;;21250559;27;20043;-48
2021/04/17 14:16:01;;;;;;;10.85;9.07;;;10.90;82.00;;;;;;21246339;27;20556;-44
2021/04/17 14:26:03;;;;;;;11.90;9.57;;;11.10;79.90;;;;;;21163467;28;20039;-46
2021/04/17 14:36:06;;;;;;;13.00;10.07;;;10.40;81.10;;;;;;21162806;28;20036;-45
2021/04/17 14:46:08;;;;;;;11.32;9.10;;;10.90;80.10;;;;;;21143920;28;20496;-46
2021/04/17 14:56:13;;;;;;;12.13;8.88;;;10.60;79.50;;;;;;21160843;28;20052;-44
2021/04/17 15:06:15;;;;;;;12.23;9.02;;;9.80;82.40;;;;;;21159703;28;20035;-46
2021/04/17 15:16:17;;;;;;;12.13;8.65;;;9.10;81.80;;;;;;21165197;27;20088;-43
2021/04/17 15:26:18;;;;;;;13.00;9.20;;;8.10;84.60;;;;;;21243517;27;20096;-43
2021/04/17 15:36:23;;;;;;;17.08;8.50;;;7.70;85.30;;;;;;21243065;27;20031;-43
2021/04/17 15:46:25;;;;;;;9.38;7.00;;;7.40;87.60;;;;;;21242558;27;20107;-43
2021/04/17 15:56:27;;;;;;;9.90;7.45;;;7.40;88.30;;;;;;21233379;27;20047;-48
2021/04/17 16:16:49;;;;;;;9.82;6.80;;;6.70;89.10;;;;;;21235850;27;20028;-43
2021/04/17 16:26:51;;;;;;;10.55;7.10;;;5.90;90.70;;;;;;21172735;28;20393;-43
2021/04/17 16:36:52;;;;;;;10.48;6.75;;;5.30;91.50;;;;;;21172334;28;20031;-43
2021/04/17 16:46:56;;;;;;;9.98;7.00;;;4.90;94.00;;;;;;21171837;28;20032;-51
2021/04/17 16:56:57;;;;;;;9.27;6.57;;;4.50;94.00;;;;;;21170486;28;20052;-55
2021/04/17 17:07:00;;;;;;;10.07;6.35;;;4.00;96.20;;;;;;21170572;28;20092;-50
2021/04/17 17:17:01;;;;;;;11.05;7.28;;;3.50;99.00;;;;;;21181995;27;20027;-51
2021/04/17 17:27:04;;;;;;;9.75;6.18;;;3.00;99.40;;;;;;21255150;27;20425;-49
2021/04/17 17:37:06;;;;;;;9.85;6.43;;;2.70;99.90;;;;;;21253078;27;20380;-53
2021/04/17 17:47:08;;;;;;;10.85;6.53;;;2.70;99.90;;;;;;21252420;27;20039;-50
2021/04/17 17:57:10;;;;;;;10.32;6.75;;;2.60;99.90;;;;;;21251134;27;20100;-50
2021/04/17 18:07:12;;;;;;;12.75;6.95;;;2.30;99.90;;;;;;21232322;27;20035;-55
2021/04/17 18:17:14;;;;;;;15.25;7.70;;;2.10;99.90;;;;;;21236115;27;20084;-49
2021/04/17 18:27:16;;;;;;;11.68;7.25;;;1.60;99.90;;;;;;21163831;28;20035;-49
2021/04/17 18:37:19;;;;;;;12.65;7.65;;;1.30;99.90;;;;;;21162498;28;20547;-49
2021/04/17 18:47:21;;;;;;;12.65;7.93;;;1.10;99.90;;;;;;21162348;28;20035;-53
2021/04/17 18:57:23;;;;;;;12.32;7.80;;;1.00;99.90;;;;;;21142474;28;20039;-53
2021/04/17 19:07:25;;;;;;;15.60;7.88;;;0.80;99.90;;;;;;21142558;28;20435;-49
2021/04/17 19:17:27;;;;;;;16.95;9.38;;;0.60;99.90;;;;;;21175773;27;20035;-49
2021/04/17 19:27:30;;;;;;;15.25;8.40;;;0.20;99.90;;;;;;21244575;27;20106;-52
2021/04/17 19:37:32;;;;;;;14.88;8.32;;;0.20;99.90;;;;;;21201383;27;20450;-48
2021/04/17 19:47:35;;;;;;;14.88;8.20;;;0.40;99.90;;;;;;21157550;28;20043;-44
2021/04/17 19:57:38;;;;;;;13.75;8.35;;;0.60;99.90;;;;;;21156862;28;20105;-42
2021/04/17 20:07:41;;;;;;;15.18;8.45;;;0.60;99.90;;;;;;21138764;28;20053;-44
2021/04/17 20:17:43;;;;;;;13.32;7.63;;;0.40;99.90;;;;;;21156492;28;20442;-43
2021/04/17 20:27:46;;;;;;;16.50;8.95;;;0.40;99.90;;;;;;21156075;28;20409;-43
2021/04/17 20:37:48;;;;;;;17.15;9.15;;;0.30;99.90;;;;;;21137666;28;20093;-44
2021/04/17 20:47:50;;;;;;;16.55;8.90;;;0.00;99.90;;;;;;21155605;28;20172;-44
2021/04/17 20:57:55;;;;;;;17.00;8.98;;;-0.10;99.90;;;;;;21154833;28;20493;-43
2021/04/17 21:08:00;;;;;;;17.70;9.07;;;-0.30;99.90;;;;;;21166880;28;20069;-42
2021/04/17 21:18:03;;;;;;;16.70;9.05;;;-0.40;99.90;;;;;;21190263;27;20388;-43
2021/04/17 21:28:16;;;;;;;17.95;9.40;;;-0.40;99.90;;;;;;21253672;27;20039;-44
2021/04/17 21:38:20;;;;;;;16.70;8.57;;;-0.10;99.90;;;;;;21252401;27;20099;-45
2021/04/17 21:48:22;;;;;;;15.93;9.30;;;0.20;99.90;;;;;;21251906;27;20091;-43
2021/04/17 21:58:33;;;;;;;17.07;9.20;;;0.50;99.90;;;;;;21250545;27;20043;-43
2021/04/17 22:08:35;;;;;;;16.92;9.55;;;0.90;99.90;;;;;;21250267;27;20080;-43
2021/04/17 22:18:36;;;;;;;14.68;8.77;;;1.00;99.90;;;;;;21223687;27;20044;-46
2021/04/17 22:28:38;;;;;;;18.85;9.77;;;1.20;99.90;;;;;;21163524;28;20035;-45
2021/04/17 22:38:40;;;;;;;16.98;10.10;;;1.40;99.90;;;;;;21162786;28;20081;-43
2021/04/17 22:48:42;;;;;;;17.05;10.10;;;1.60;99.90;;;;;;21161835;28;20058;-46
2021/04/17 22:58:44;;;;;;;18.33;9.80;;;1.80;99.90;;;;;;21160961;28;20085;-44
2021/04/17 23:08:45;;;;;;;16.60;9.85;;;2.00;99.90;;;;;;21160361;28;20553;-44
2021/04/17 23:18:47;;;;;;;15.75;9.20;;;2.00;99.90;;;;;;21186506;27;20085;-43
2021/04/17 23:28:51;;;;;;;14.20;8.30;;;2.00;99.90;;;;;;21243488;27;20084;-46
2021/04/17 23:38:53;;;;;;;16.50;9.02;;;2.10;99.90;;;;;;21243234;27;20035;-46
2021/04/17 23:48:55;;;;;;;17.38;9.80;;;2.10;99.90;;;;;;21224563;27;20035;-43
2021/04/17 23:58:57;;;;;;;14.43;9.98;;;2.10;99.90;;;;;;21167178;27;20346;-42
